Miguel Riglos, Argentina
Current Conditions -  °F | °C
As of 3:00 PM on Monday 26 Jan 2015 (Local Time) from SAOC Reporting Station
Thunderstorm Thunderstorm  
Wind Chill: 27°   Ceiling: Unl
Heat Index: 28°   Visibility: 6mi
Dew Point: 20°   Wind: 16mph
Humidity: 65%   Direction: 90°E
Pressure: 29.77"   Gusts: NA
Location:  36.85°S, 63.7°W
Report Text: SAOC 261800Z 09014KT 9999 TS FEW025 FEW040FEW040CB 27/20 Q1008
Loading
Personal Weather Stations






























Interactive Weather Map New forecast layout! Learn more

10-Day Weather Forecast

Advertisements
Track Severe Weather on mobile